Quinwood, WV (25981)

4:52 PM EDT on July 22, 2014 (GMT -0400)
KWVMTNEB2 Elev 2195 ft | 38.14 °N, 80.85 °W | Change Station

Current weather conditions updated 0 second ago

Rain
Rain
83.9 °F
Feels Like 87 °F
N
2.0
Wind Variable Wind from ENE
Gusts 3.0 mph

Tomorrow is forecast to be Cooler than today. Showers and thunderstorms tomorrow night.

Today
High -- | Low -- °F
--% Chance of Precip.
Yesterday
High -- | Low -- °F
Precip. -- in
6:17 AM 8:40 PM
Waning Crescent, 15% visible
Pressure 30.17 in
Visibility 10.0 miles
Clouds Scattered Clouds 9500 ft
Heat Index 87 °F
Dew Point 68 °F
Humidity 58%
Rainfall 0.00 in
Snow Depth Not available.
UV 6 out of 12
Pollen 4.10 out of 12
Air Quality Not available.
Flu Activity Sporadic
METAR KLWB 222035Z AUTO 14005KT 10SM SCT095 29/18 A3017 RMK AO2 T02870177

More Conditions Fewer Conditions

Pressure 30.17 in
Visibility 10.0 miles
Clouds Scattered Clouds 9500 ft
Heat Index 87 °F
Dew Point 68 °F
Humidity 58%
Rainfall 0.00 in
Snow Depth Not available.
UV 6 out of 12
Pollen 4.10 out of 12
Air Quality Not available.
Flu Activity Sporadic
METAR KLWB 222035Z AUTO 14005KT 10SM SCT095 29/18 A3017 RMK AO2 T02870177

More Conditions Fewer Conditions

10-Day Weather Forecast

Almanac

Astronomy

Jul. 22, 2014 Rise Set
Actual Time 6:17 AM EDT 8:40 PM EDT
Civil Twilight 5:47 AM EDT 9:10 PM EDT
Nautical Twilight 5:10 AM EDT 9:47 PM EDT
Astronomical Twilight 4:29 AM EDT 10:28 PM EDT
Moon 2:48 AM EDT 5:17 PM EDT
Length of Visible Light 15h 23m
Length of Day
14h 23m
Tomorrow will be 1m 33s shorter.
Waning Crescent, 15% of the Moon is Illuminated
Today
Waning Crescent
Jul 26
New
Aug 3
First Quarter
Aug 10
Full
Aug 17
Last Quarter

Today's Extremes

State Highs State Lows

Community

WunderPhotos

Upload Photos

1,736,350 photos uploaded!

Nearby

Snow Depth

Station Depth Elevation
No new snow has been reported.

Earthquake Activity

City Distance Mag. Time & Date
No recent earthquake activity has been reported nearby.
Minimum magnitude displayed is 2.5.

Coastal Water Temperatures

Place Temperature
No Stations Reporting

Nearby Weather Stations

Station Location Temp. Heat Index Dew Point Humidity Wind Precip. Elev Updated Type
Mt Nebo, WV 83.9 °F 87 °F 68 °F 58% ENE  at  2.0 mph 0.00 in / hr 2195 ft 4:52 PM EDT Rapid Fire
Bunny's Holler Live Weather, Auto, WV 82.2 °F 86 °F 69 °F 64% SSW  at  1.7 mph 0.00 in / hr 2543 ft 4:52 PM EDT Rapid Fire
Blue Sulphur Springs, WV 88.2 °F 92 °F 68 °F 52% WSW  at  1.6 mph 0.00 in / hr 1719 ft 4:39 PM EDT Rapid Fire
F.I.T. - Oyler Ave., Oak Hill, WV 88.9 °F 93 °F 68 °F 50% South  at  0.0 mph 0.00 in / hr 1988 ft 4:51 PM EDT Rapid Fire

Show More Stations Show Fewer Stations